Time;durP1;ratioP1;P1;durP2;ratioP2;P2;SDS_P1;SDS_P2;PMS_P1;PMS_P2;Temp;Humidity;BMP_temperature;BMP_pressure;BME280_temperature;BME280_humidity;BME280_pressure;Samples;Min_cycle;Max_cycle;Signal;HPM_P1;HPM_P2
2023/09/09 00:00:51;;;;;;;38.50;34.50;;;;;;;14.49;100.00;99388.86;109633;1250;62679;-68
2023/09/09 00:03:30;;;;;;;35.20;31.60;;;;;;;14.47;100.00;99390.63;109603;1250;58991;-68
2023/09/09 00:05:57;;;;;;;36.00;32.60;;;;;;;14.45;100.00;99387.73;109447;1251;59025;-68
2023/09/09 00:08:24;;;;;;;34.70;31.00;;;;;;;14.42;100.00;99386.56;109640;1250;67477;-68
2023/09/09 00:10:50;;;;;;;36.50;32.80;;;;;;;14.38;100.00;99384.91;109313;1251;60077;-68
2023/09/09 00:13:17;;;;;;;31.40;28.10;;;;;;;14.34;100.00;99383.58;109405;1251;64133;-68
2023/09/09 00:15:43;;;;;;;33.60;30.40;;;;;;;14.30;100.00;99381.70;109597;1250;58946;-68
2023/09/09 00:18:10;;;;;;;30.60;27.60;;;;;;;14.26;100.00;99381.30;109614;1250;58852;-68
2023/09/09 00:20:39;;;;;;;36.40;33.00;;;;;;;14.22;100.00;99379.09;109622;1250;64850;-68
2023/09/09 00:23:08;;;;;;;35.20;31.70;;;;;;;14.20;100.00;99380.16;109654;1250;59023;-68
2023/09/09 00:25:39;;;;;;;35.60;32.00;;;;;;;14.17;100.00;99376.79;109603;1250;63747;-68
2023/09/09 00:28:08;;;;;;;36.80;33.00;;;;;;;14.16;100.00;99373.88;109414;1251;58992;-68
2023/09/09 00:30:34;;;;;;;36.10;32.50;;;;;;;14.14;100.00;99372.03;109630;1251;59010;-68
2023/09/09 00:33:01;;;;;;;36.80;33.10;;;;;;;14.12;100.00;99373.05;109634;1250;64890;-68
2023/09/09 00:35:28;;;;;;;37.40;33.50;;;;;;;14.10;100.00;99372.52;109646;1250;60277;-68
2023/09/09 00:37:55;;;;;;;39.50;35.30;;;;;;;14.09;100.00;99370.47;109446;1251;63375;-68
2023/09/09 00:40:22;;;;;;;36.10;32.40;;;;;;;14.08;100.00;99371.41;109622;1250;58943;-69
2023/09/09 00:42:48;;;;;;;36.90;33.00;;;;;;;14.07;100.00;99374.56;109629;1250;59033;-68
2023/09/09 00:45:15;;;;;;;35.10;31.60;;;;;;;14.06;100.00;99372.68;109652;1250;66001;-68
2023/09/09 00:47:42;;;;;;;38.00;34.20;;;;;;;14.05;100.00;99368.43;109673;1250;58958;-68
2023/09/09 00:50:11;;;;;;;39.80;35.80;;;;;;;14.06;100.00;99369.27;109632;1250;62628;-68
2023/09/09 00:52:39;;;;;;;40.30;36.50;;;;;;;14.08;100.00;99367.16;109665;1250;59029;-68
2023/09/09 00:55:07;;;;;;;40.80;37.20;;;;;;;14.09;100.00;99368.14;109643;1250;59433;-69
2023/09/09 00:57:33;;;;;;;39.10;35.30;;;;;;;14.09;100.00;99370.98;109670;1250;64820;-68
2023/09/09 01:00:03;;;;;;;38.90;35.20;;;;;;;14.10;100.00;99372.20;109424;1250;60110;-68
2023/09/09 01:02:31;;;;;;;;;;;;;;;14.11;100.00;99374.59;109437;1251;63036;-68
2023/09/09 01:04:59;;;;;;;37.20;33.60;;;;;;;14.11;100.00;99375.67;109631;1250;59032;-68
2023/09/09 01:07:27;;;;;;;36.90;33.30;;;;;;;14.10;100.00;99374.30;109680;1250;59121;-68
2023/09/09 01:09:53;;;;;;;35.00;31.40;;;;;;;14.09;100.00;99377.05;109636;1250;66034;-68
2023/09/09 01:12:24;;;;;;;35.20;31.90;;;;;;;14.06;100.00;99383.38;109432;1250;59023;-69
2023/09/09 01:14:50;;;;;;;34.30;31.00;;;;;;;14.02;100.00;99382.21;109624;1250;64104;-68
2023/09/09 01:17:18;;;;;;;33.40;30.20;;;;;;;13.99;100.00;99381.05;109631;1250;58943;-69
2023/09/09 01:19:44;;;;;;;33.80;30.70;;;;;;;13.95;100.00;99381.83;109436;1251;59019;-68
2023/09/09 01:22:18;;;;;;;32.00;28.90;;;;;;;13.92;100.00;99377.48;109619;1250;66106;-69
2023/09/09 01:24:45;;;;;;;32.10;29.00;;;;;;;13.88;100.00;99374.86;109228;1250;60132;-68
2023/09/09 01:27:11;;;;;;;30.50;27.40;;;;;;;13.86;100.00;99374.70;109627;1250;62514;-68
2023/09/09 01:29:38;;;;;;;27.50;24.80;;;;;;;13.81;100.00;99374.85;109651;1250;58962;-69
2023/09/09 01:32:04;;;;;;;30.00;27.20;;;;;;;13.77;100.00;99373.92;109646;1250;59011;-68
2023/09/09 01:34:31;;;;;;;30.20;27.20;;;;;;;13.73;100.00;99375.61;109682;1250;64995;-68
2023/09/09 01:36:58;;;;;;;32.90;29.70;;;;;;;13.67;100.00;99374.31;109596;1250;60113;-68
2023/09/09 01:39:24;;;;;;;33.30;30.10;;;;;;;13.62;100.00;99373.41;109624;1250;64069;-68
2023/09/09 01:41:51;;;;;;;32.60;29.40;;;;;;;13.59;100.00;99372.58;109609;1250;58939;-68
2023/09/09 01:44:17;;;;;;;32.10;28.90;;;;;;;13.57;100.00;99373.61;109711;1250;59229;-68
2023/09/09 01:46:44;;;;;;;32.60;29.20;;;;;;;13.54;100.00;99371.11;109679;1250;59335;-68
2023/09/09 01:49:10;;;;;;;33.00;29.70;;;;;;;13.51;100.00;99368.29;109589;1250;58978;-69
2023/09/09 01:51:37;;;;;;;31.50;28.60;;;;;;;13.50;100.00;99369.09;109487;1251;59092;-69
2023/09/09 01:54:03;;;;;;;31.30;28.20;;;;;;;13.50;100.00;99368.44;109607;1250;58937;-69
2023/09/09 01:56:30;;;;;;;34.00;30.40;;;;;;;13.48;100.00;99367.81;109687;1250;59094;-69
2023/09/09 01:58:56;;;;;;;32.50;29.30;;;;;;;13.47;100.00;99371.52;109628;1250;59053;-69
2023/09/09 02:01:23;;;;;;;35.30;31.80;;;;;;;13.44;100.00;99373.31;109713;1250;58943;-69
2023/09/09 02:03:49;;;;;;;33.70;30.50;;;;;;;13.40;100.00;99374.52;109609;1250;59021;-69
2023/09/09 02:06:17;;;;;;;34.20;30.70;;;;;;;13.35;100.00;99373.73;109639;1250;59025;-69
2023/09/09 02:08:43;;;;;;;33.50;30.20;;;;;;;13.33;100.00;99375.52;109645;1250;58998;-69
2023/09/09 02:11:10;;;;;;;36.30;32.60;;;;;;;13.31;100.00;99370.67;109642;1250;66072;-69
2023/09/09 02:13:36;;;;;;;33.80;30.40;;;;;;;13.29;100.00;99371.70;109584;1250;60154;-69
2023/09/09 02:16:07;;;;;;;33.30;30.10;;;;;;;13.28;100.00;99374.67;109620;1251;64135;-69
2023/09/09 02:18:37;;;;;;;33.70;30.40;;;;;;;13.27;100.00;99379.70;109620;1250;59020;-69
2023/09/09 02:21:05;;;;;;;32.00;28.80;;;;;;;13.27;100.00;99376.15;109546;1251;59415;-69
2023/09/09 02:23:31;;;;;;;33.70;30.50;;;;;;;13.25;100.00;99374.68;109634;1250;66036;-69
2023/09/09 02:25:58;;;;;;;33.00;29.70;;;;;;;13.21;100.00;99379.91;109633;1250;60328;-69
2023/09/09 02:28:25;;;;;;;32.90;29.40;;;;;;;13.16;100.00;99378.83;109628;1250;63970;-69
2023/09/09 02:30:52;;;;;;;32.90;29.60;;;;;;;13.14;100.00;99378.30;109634;1251;58968;-69
2023/09/09 02:33:18;;;;;;;31.10;28.00;;;;;;;13.12;100.00;99379.13;109689;1250;59004;-69
2023/09/09 02:35:45;;;;;;;31.80;28.60;;;;;;;13.11;100.00;99377.08;109647;1250;58961;-69
2023/09/09 02:38:11;;;;;;;30.40;27.40;;;;;;;13.11;100.00;99374.77;109442;1251;59124;-69
2023/09/09 02:40:38;;;;;;;30.10;27.30;;;;;;;13.09;100.00;99376.85;109615;1250;62929;-67
2023/09/09 02:43:04;;;;;;;29.70;26.90;;;;;;;13.08;100.00;99376.41;109596;1250;58966;-69
2023/09/09 02:45:31;;;;;;;31.10;28.00;;;;;;;13.06;100.00;99377.59;109647;1250;59017;-68
2023/09/09 02:47:57;;;;;;;29.30;26.10;;;;;;;13.04;100.00;99379.30;109601;1251;58998;-69
2023/09/09 02:50:24;;;;;;;29.60;26.50;;;;;;;13.03;100.00;99374.45;109360;1250;59107;-67
2023/09/09 02:52:50;;;;;;;30.20;27.20;;;;;;;13.01;100.00;99373.67;109630;1251;59014;-68
2023/09/09 02:55:17;;;;;;;31.70;28.80;;;;;;;13.00;100.00;99376.78;109601;1251;58935;-68
2023/09/09 02:57:49;;;;;;;34.00;30.70;;;;;;;13.00;100.00;99376.81;109637;1250;58860;-68
2023/09/09 03:00:15;;;;;;;33.20;29.90;;;;;;;12.99;100.00;99380.07;109224;1250;64947;-68
2023/09/09 03:02:42;;;;;;;71.90;34.10;;;;;;;12.98;100.00;99378.38;109615;1250;60078;-67
2023/09/09 03:05:09;;;;;;;53.10;36.50;;;;;;;12.98;100.00;99377.09;109600;1250;62891;-68
2023/09/09 03:07:37;;;;;;;41.30;34.10;;;;;;;13.00;100.00;99374.67;109623;1250;59086;-67
2023/09/09 03:10:04;;;;;;;40.50;36.00;;;;;;;13.02;100.00;99374.69;109615;1251;59029;-68
2023/09/09 03:12:31;;;;;;;39.20;35.00;;;;;;;13.02;100.00;99373.59;109352;1251;66074;-68
2023/09/09 03:14:57;;;;;;;37.50;33.70;;;;;;;13.03;100.00;99374.98;109624;1251;60188;-68
2023/09/09 03:17:29;;;;;;;34.40;31.30;;;;;;;13.01;100.00;99381.35;109608;1251;58968;-68
2023/09/09 03:19:56;;;;;;;32.30;29.20;;;;;;;12.94;100.00;99384.85;109609;1251;59037;-68
2023/09/09 03:22:23;;;;;;;28.20;25.60;;;;;;;12.88;100.00;99381.70;109661;1251;58853;-68
2023/09/09 03:24:49;;;;;;;29.40;26.60;;;;;;;12.84;100.00;99379.15;109675;1250;66038;-68
2023/09/09 03:27:16;;;;;;;30.60;27.80;;;;;;;12.80;100.00;99382.99;109729;1250;60241;-68
2023/09/09 03:29:42;;;;;;;30.20;27.20;;;;;;;12.78;100.00;99384.56;109642;1250;58986;-68
2023/09/09 03:32:09;;;;;;;30.80;27.70;;;;;;;12.75;100.00;99386.35;109580;1251;58954;-68
2023/09/09 03:34:35;;;;;;;31.00;28.00;;;;;;;12.73;100.00;99386.14;109354;1251;58951;-68
2023/09/09 03:37:02;;;;;;;29.40;26.80;;;;;;;12.71;100.00;99384.12;109640;1251;59555;-68
2023/09/09 03:39:28;;;;;;;30.50;27.60;;;;;;;12.69;100.00;99383.02;109601;1251;59055;-68
2023/09/09 03:41:55;;;;;;;29.30;26.60;;;;;;;12.66;100.00;99382.52;109657;1250;62923;-68
2023/09/09 03:44:21;;;;;;;29.10;26.40;;;;;;;12.61;100.00;99382.33;109636;1251;58944;-68
2023/09/09 03:46:48;;;;;;;29.50;26.60;;;;;;;12.59;100.00;99382.88;109605;1250;58885;-68
2023/09/09 03:49:15;;;;;;;27.50;25.00;;;;;;;12.56;100.00;99381.30;109635;1250;66119;-68
2023/09/09 03:51:41;;;;;;;26.20;23.90;;;;;;;12.52;100.00;99384.04;109668;1251;60379;-68
2023/09/09 03:54:08;;;;;;;23.60;21.50;;;;;;;12.48;100.00;99389.48;109615;1251;71726;-68
2023/09/09 03:56:34;;;;;;;24.90;22.70;;;;;;;12.41;100.00;99389.45;109635;1250;58956;-68
2023/09/09 03:59:01;;;;;;;27.40;24.80;;;;;;;12.37;100.00;99395.21;109592;1254;59054;-68
2023/09/09 04:01:28;;;;;;;29.00;26.30;;;;;;;12.39;100.00;99398.81;109622;1250;66076;-68
2023/09/09 04:03:56;;;;;;;27.40;24.50;;;;;;;12.42;100.00;99395.79;109611;1251;59008;-68
2023/09/09 04:06:27;;;;;;;27.70;25.10;;;;;;;12.42;100.00;99396.11;109609;1250;62841;-68
2023/09/09 04:08:56;;;;;;;26.50;24.00;;;;;;;12.42;100.00;99392.77;109584;1251;58971;-68
2023/09/09 04:11:23;;;;;;;26.60;24.30;;;;;;;12.41;100.00;99395.52;109655;1251;59040;-68
2023/09/09 04:13:50;;;;;;;26.90;24.30;;;;;;;12.41;100.00;99403.54;109613;1251;66015;-68
2023/09/09 04:16:16;;;;;;;25.90;23.60;;;;;;;12.39;100.00;99401.31;109623;1250;58982;-68
2023/09/09 04:18:43;;;;;;;26.40;23.70;;;;;;;12.37;100.00;99403.23;109661;1251;64026;-68
2023/09/09 04:21:09;;;;;;;27.50;24.90;;;;;;;12.38;100.00;99405.71;109581;1251;58951;-68
2023/09/09 04:23:36;;;;;;;29.20;26.30;;;;;;;12.40;100.00;99405.73;109604;1251;58868;-68
2023/09/09 04:26:02;;;;;;;29.60;26.80;;;;;;;12.45;100.00;99405.21;109351;1251;59712;-68
2023/09/09 04:28:29;;;;;;;28.20;25.60;;;;;;;12.49;100.00;99404.38;109672;1250;58961;-68
2023/09/09 04:30:55;;;;;;;27.00;24.50;;;;;;;12.52;100.00;99407.94;109634;1251;63904;-68
2023/09/09 04:33:22;;;;;;;29.30;26.30;;;;;;;12.55;100.00;99404.69;109647;1250;59172;-68
2023/09/09 04:35:49;;;;;;;50.70;27.40;;;;;;;12.60;100.00;99402.55;109656;1250;59413;-68
2023/09/09 04:38:16;;;;;;;60.80;27.70;;;;;;;12.66;100.00;99403.77;109564;1251;64928;-68
2023/09/09 04:40:43;;;;;;;70.60;30.70;;;;;;;12.71;100.00;99402.52;109638;1250;59844;-68
2023/09/09 04:43:09;;;;;;;61.10;30.00;;;;;;;12.77;100.00;99401.04;109581;1250;62855;-68
2023/09/09 04:45:36;;;;;;;74.90;27.00;;;;;;;12.84;100.00;99406.66;109621;1250;58985;-67
2023/09/09 04:48:04;;;;;;;72.50;25.50;;;;;;;12.92;100.00;99409.02;109588;1251;59000;-68
2023/09/09 04:50:31;;;;;;;74.40;26.90;;;;;;;13.04;100.00;99411.11;109614;1250;66162;-68
2023/09/09 04:52:58;;;;;;;54.60;27.00;;;;;;;13.14;100.00;99408.59;109634;1251;59017;-68
2023/09/09 04:55:25;;;;;;;31.80;24.30;;;;;;;13.24;100.00;99411.67;109599;1250;64054;-68
2023/09/09 04:57:51;;;;;;;32.80;23.70;;;;;;;13.33;100.00;99410.11;109640;1251;59303;-68
2023/09/09 05:00:18;;;;;;;26.90;23.10;;;;;;;13.44;100.00;99410.43;109631;1250;58870;-68
2023/09/09 05:02:45;;;;;;;30.80;20.90;;;;;;;13.56;100.00;99411.66;109455;1251;66101;-68
2023/09/09 05:05:11;;;;;;;22.70;20.30;;;;;;;13.68;100.00;99415.09;109686;1250;59102;-68
2023/09/09 05:07:40;;;;;;;22.50;18.70;;;;;;;13.79;100.00;99416.42;109609;1250;64061;-68
2023/09/09 05:10:06;;;;;;;30.70;19.80;;;;;;;13.91;100.00;99415.55;109587;1250;58936;-68
2023/09/09 05:12:35;;;;;;;22.20;20.10;;;;;;;14.05;100.00;99410.63;109611;1250;59021;-68
2023/09/09 05:15:04;;;;;;;28.90;24.00;;;;;;;14.19;100.00;99412.05;109610;1251;64791;-68
2023/09/09 05:17:30;;;;;;;35.90;21.00;;;;;;;14.33;100.00;99411.16;109614;1251;60112;-68
2023/09/09 05:19:57;;;;;;;46.00;19.60;;;;;;;14.45;100.00;99415.44;109633;1250;64067;-68
2023/09/09 05:22:23;;;;;;;56.10;19.30;;;;;;;14.58;100.00;99417.55;109587;1251;58938;-69
2023/09/09 05:24:50;;;;;;;60.50;17.10;;;;;;;14.69;100.00;99421.33;109655;1251;59167;-68
2023/09/09 05:27:17;;;;;;;47.00;17.70;;;;;;;14.80;100.00;99417.25;109350;1251;59731;-68
2023/09/09 05:29:43;;;;;;;22.50;16.80;;;;;;;14.97;100.00;99412.92;109632;1251;60204;-68
2023/09/09 05:32:10;;;;;;;57.20;16.70;;;;;;;15.15;100.00;99419.88;109569;1251;64047;-68
2023/09/09 05:34:36;;;;;;;41.70;17.60;;;;;;;15.32;100.00;99419.46;109612;1251;59034;-68
2023/09/09 05:37:03;;;;;;;51.80;16.10;;;;;;;15.51;100.00;99419.69;109629;1251;59056;-68
2023/09/09 05:39:30;;;;;;;33.70;14.90;;;;;;;15.65;100.00;99422.69;109648;1250;65723;-68
2023/09/09 05:41:56;;;;;;;15.80;14.30;;;;;;;15.77;100.00;99420.65;109605;1251;58972;-68
2023/09/09 05:44:23;;;;;;;15.80;14.20;;;;;;;15.94;100.00;99418.36;109617;1251;64073;-68
2023/09/09 05:46:49;;;;;;;16.20;14.70;;;;;;;16.14;100.00;99415.48;109609;1251;58977;-68
2023/09/09 05:49:16;;;;;;;18.20;16.60;;;;;;;16.41;100.00;99412.64;109626;1251;59033;-67
2023/09/09 05:51:42;;;;;;;16.90;15.30;;;;;;;16.70;100.00;99411.79;109633;1251;65748;-68
2023/09/09 05:54:09;;;;;;;19.70;15.40;;;;;;;16.87;100.00;99408.45;109651;1251;58935;-68
2023/09/09 05:56:36;;;;;;;16.80;15.40;;;;;;;17.03;100.00;99410.41;109592;1251;63401;-68
2023/09/09 05:59:07;;;;;;;15.50;14.00;;;;;;;17.15;100.00;99411.39;109661;1251;58964;-68
2023/09/09 06:01:34;;;;;;;16.00;14.40;;;;;;;17.20;100.00;99413.83;109632;1251;58996;-68
2023/09/09 06:04:00;;;;;;;19.20;17.60;;;;;;;17.28;100.00;99417.05;109435;1251;66059;-68
2023/09/09 06:06:27;;;;;;;21.70;19.70;;;;;;;17.42;100.00;99418.71;109687;1250;59083;-68
2023/09/09 06:08:53;;;;;;;23.30;21.20;;;;;;;17.63;100.00;99419.30;109662;1251;64123;-68
2023/09/09 06:11:20;;;;;;;24.50;22.30;;;;;;;17.84;100.00;99418.20;109635;1251;59015;-68
2023/09/09 06:13:47;;;;;;;25.90;23.40;;;;;;;18.00;100.00;99421.45;109640;1251;58834;-68
2023/09/09 06:16:13;;;;;;;26.10;23.70;;;;;;;18.20;100.00;99423.26;109653;1250;66072;-68
2023/09/09 06:18:40;;;;;;;21.20;19.30;;;;;;;18.37;100.00;99423.96;109600;1251;59025;-68
2023/09/09 06:21:06;;;;;;;20.10;18.20;;;;;;;18.45;100.00;99428.09;109571;1251;63737;-68
2023/09/09 06:23:35;;;;;;;17.80;16.20;;;;;;;18.45;100.00;99431.73;109642;1250;58934;-68
2023/09/09 06:26:01;;;;;;;17.50;16.00;;;;;;;18.44;100.00;99433.40;109618;1251;58996;-68
2023/09/09 06:28:28;;;;;;;17.50;16.00;;;;;;;18.44;100.00;99435.90;109654;1251;65821;-68
2023/09/09 06:30:54;;;;;;;16.90;15.50;;;;;;;18.47;100.00;99440.90;109603;1250;59080;-68
2023/09/09 06:33:21;;;;;;;16.80;15.40;;;;;;;18.50;100.00;99443.50;109592;1250;59057;-68
2023/09/09 06:35:49;;;;;;;17.30;15.80;;;;;;;18.49;100.00;99445.41;109320;1251;59089;-69
2023/09/09 06:38:16;;;;;;;17.30;15.80;;;;;;;18.51;100.00;99448.39;109657;1250;58931;-68
2023/09/09 06:40:46;;;;;;;17.10;15.70;;;;;;;18.58;100.00;99445.95;109568;1251;66009;-68
2023/09/09 06:43:17;;;;;;;16.50;15.10;;;;;;;18.62;100.00;99447.17;109690;1251;60182;-68
2023/09/09 06:45:43;;;;;;;17.40;16.10;;;;;;;18.64;100.00;99450.60;109633;1251;64122;-68
2023/09/09 06:48:10;;;;;;;17.50;16.10;;;;;;;18.69;100.00;99452.14;109551;1251;58914;-68
2023/09/09 06:50:37;;;;;;;18.60;17.20;;;;;;;18.72;100.00;99457.48;109489;1251;174324;-68
2023/09/09 06:53:03;;;;;;;17.70;16.20;;;;;;;18.73;100.00;99457.20;109558;1251;66016;-68
2023/09/09 06:55:32;;;;;;;17.40;16.00;;;;;;;18.73;100.00;99455.35;109677;1251;58951;-68
2023/09/09 06:58:00;;;;;;;17.60;16.10;;;;;;;18.81;100.00;99458.17;109634;1251;64038;-68
2023/09/09 07:00:26;;;;;;;17.70;16.10;;;;;;;18.91;100.00;99462.15;109613;1251;58942;-68
2023/09/09 07:02:53;;;;;;;18.10;16.60;;;;;;;18.94;100.00;99463.12;109600;1251;58960;-68
2023/09/09 07:05:19;;;;;;;20.80;19.00;;;;;;;18.93;100.00;99461.09;109653;1251;64943;-68
2023/09/09 07:07:46;;;;;;;20.00;18.40;;;;;;;18.92;100.00;99461.75;109610;1251;59063;-68
2023/09/09 07:10:12;;;;;;;20.10;18.40;;;;;;;18.91;100.00;99462.20;109633;1251;64052;-69
2023/09/09 07:12:39;;;;;;;20.60;18.80;;;;;;;18.91;100.00;99467.56;109595;1251;59107;-68
2023/09/09 07:15:06;;;;;;;21.70;20.00;;;;;;;18.92;100.00;99469.98;109646;1251;58993;-68
2023/09/09 07:17:33;;;;;;;20.60;18.80;;;;;;;18.96;100.00;99471.59;109333;1250;66035;-68
2023/09/09 07:19:59;;;;;;;22.10;20.30;;;;;;;19.04;100.00;99474.11;109557;1251;60130;-68
2023/09/09 07:22:26;;;;;;;22.60;20.70;;;;;;;19.08;100.00;99473.67;109602;1250;64151;-68
2023/09/09 07:24:53;;;;;;;25.40;23.00;;;;;;;19.14;100.00;99472.38;109603;1251;59282;-70
2023/09/09 07:27:20;;;;;;;25.80;23.30;;;;;;;19.22;100.00;99473.77;109641;1251;58938;-68
2023/09/09 07:29:46;;;;;;;25.70;23.40;;;;;;;19.33;100.00;99474.23;109635;1251;66014;-68
2023/09/09 07:32:13;;;;;;;25.40;23.20;;;;;;;19.42;100.00;99482.55;109609;1251;59024;-69
2023/09/09 07:34:39;;;;;;;27.20;24.70;;;;;;;19.51;100.00;99481.31;109605;1251;59140;-69
2023/09/09 07:37:06;;;;;;;24.20;22.10;;;;;;;19.62;100.00;99475.02;109615;1251;58984;-68
2023/09/09 07:39:44;;;;;;;26.60;24.40;;;;;;;19.68;100.00;99478.02;109637;1250;59011;-68
2023/09/09 07:42:13;;;;;;;26.50;24.00;;;;;;;19.72;100.00;99477.65;109625;1251;66037;-68
2023/09/09 07:44:45;;;;;;;26.40;24.10;;;;;;;19.79;100.00;99476.52;109095;1251;60264;-69
2023/09/09 07:47:12;;;;;;;25.30;23.20;;;;;;;19.85;100.00;99474.94;109658;1251;64050;-68
2023/09/09 07:49:38;;;;;;;25.20;23.10;;;;;;;19.93;100.00;99479.25;109420;1251;59053;-68
2023/09/09 07:52:05;;;;;;;25.70;23.20;;;;;;;19.99;100.00;99480.84;109654;1251;59010;-68
2023/09/09 07:54:32;;;;;;;25.80;23.60;;;;;;;20.06;100.00;99480.45;109677;1251;66053;-68
2023/09/09 07:56:59;;;;;;;23.50;21.40;;;;;;;20.13;100.00;99479.63;109614;1251;60445;-68
2023/09/09 07:59:28;;;;;;;24.20;21.90;;;;;;;20.16;100.00;99478.77;109234;1251;64043;-68
2023/09/09 08:01:55;;;;;;;22.50;20.40;;;;;;;20.24;100.00;99475.64;109597;1251;59517;-68
2023/09/09 08:04:22;;;;;;;21.40;19.50;;;;;;;20.34;100.00;99470.48;109636;1251;58963;-68
2023/09/09 08:06:52;;;;;;;20.60;18.70;;;;;;;20.47;100.00;99474.09;109578;1251;64836;-69
2023/09/09 08:09:22;;;;;;;19.10;17.30;;;;;;;20.56;100.00;99478.54;109643;1251;60695;-68
2023/09/09 08:11:49;;;;;;;18.20;16.40;;;;;;;20.67;100.00;99475.48;109630;1251;63730;-68
2023/09/09 08:14:17;;;;;;;17.90;16.30;;;;;;;20.81;100.00;99471.41;109577;1251;58981;-68
2023/09/09 08:16:44;;;;;;;18.20;16.60;;;;;;;20.93;100.00;99474.11;109663;1251;58953;-69
2023/09/09 08:19:11;;;;;;;18.60;16.90;;;;;;;21.03;100.00;99472.77;109571;1251;66125;-69
2023/09/09 08:21:37;;;;;;;18.10;16.50;;;;;;;21.11;100.00;99471.52;109594;1251;59300;-69
2023/09/09 08:24:04;;;;;;;17.30;15.60;;;;;;;21.22;100.00;99467.15;109590;1251;59044;-69
2023/09/09 08:26:31;;;;;;;16.70;15.30;;;;;;;21.37;100.00;99466.37;109604;1251;59028;-69
2023/09/09 08:28:57;;;;;;;18.00;16.40;;;;;;;21.48;100.00;99467.20;109590;1251;59031;-69
2023/09/09 08:31:24;;;;;;;16.80;15.20;;;;;;;21.55;100.00;99467.02;109560;1251;66964;-69
2023/09/09 08:33:51;;;;;;;18.80;17.00;;;;;;;21.61;100.00;99468.17;109617;1251;60213;-69
2023/09/09 08:36:17;;;;;;;16.70;15.20;;;;;;;21.70;100.00;99469.95;109631;1253;64069;-69
2023/09/09 08:38:44;;;;;;;16.70;15.30;;;;;;;21.78;100.00;99467.27;109602;1251;58989;-68
2023/09/09 08:41:20;;;;;;;17.60;16.20;;;;;;;21.89;100.00;99469.52;109650;1250;58941;-69
2023/09/09 08:43:55;;;;;;;17.30;15.70;;;;;;;22.00;100.00;99468.55;109586;1251;64813;-69
2023/09/09 08:46:22;;;;;;;15.70;14.30;;;;;;;22.12;100.00;99469.98;109632;1251;60244;-69
2023/09/09 08:48:50;;;;;;;15.20;13.90;;;;;;;22.23;100.00;99469.69;109605;1251;62987;-69
2023/09/09 08:51:19;;;;;;;14.90;13.70;;;;;;;22.36;100.00;99468.50;109610;1251;59015;-69
2023/09/09 08:53:49;;;;;;;15.70;14.20;;;;;;;22.50;100.00;99467.52;109614;1251;58993;-70
2023/09/09 08:56:17;;;;;;;16.70;15.10;;;;;;;22.61;100.00;99476.31;109594;1253;66699;-71
2023/09/09 08:58:45;;;;;;;14.70;12.60;;;;;;;22.71;100.00;99476.05;109555;1255;59017;-68
2023/09/09 09:01:14;;;;;;;13.10;12.10;;;;;;;22.79;100.00;99473.50;109613;1251;62646;-68
2023/09/09 09:03:42;;;;;;;13.30;12.20;;;;;;;22.79;100.00;99476.13;109553;1251;59027;-68
2023/09/09 09:06:09;;;;;;;12.50;11.30;;;;;;;22.81;100.00;99473.88;109592;1251;58863;-68
2023/09/09 09:08:36;;;;;;;12.20;11.20;;;;;;;22.87;100.00;99473.78;109620;1251;65789;-68
2023/09/09 09:11:04;;;;;;;12.20;11.20;;;;;;;22.92;100.00;99472.66;109684;1250;59872;-68
2023/09/09 09:13:31;;;;;;;13.50;12.20;;;;;;;23.00;100.00;99472.55;109593;1251;62499;-68
2023/09/09 09:15:59;;;;;;;13.10;12.00;;;;;;;23.07;100.00;99473.23;109563;1251;58955;-68
2023/09/09 09:18:26;;;;;;;14.30;13.10;;;;;;;23.19;100.00;99473.27;109645;1251;58825;-68
2023/09/09 09:20:53;;;;;;;13.90;12.70;;;;;;;23.34;100.00;99467.67;109582;1256;66003;-68
2023/09/09 09:23:20;;;;;;;12.30;11.00;;;;;;;23.41;100.00;99460.89;109316;1251;59877;-68
2023/09/09 09:25:48;;;;;;;10.10;9.10;;;;;;;23.52;100.00;99460.55;109665;1250;63744;-68
2023/09/09 09:28:16;;;;;;;11.80;10.60;;;;;;;23.67;100.00;99453.92;109617;1251;58940;-68
2023/09/09 09:30:42;;;;;;;11.20;10.30;;;;;;;23.81;100.00;99450.71;109614;1251;58976;-68
2023/09/09 09:33:09;;;;;;;11.50;10.30;;;;;;;23.94;100.00;99449.98;109649;1251;65691;-68
2023/09/09 09:35:36;;;;;;;11.70;10.70;;;;;;;24.03;100.00;99446.29;109659;1251;60004;-67
2023/09/09 09:38:17;;;;;;;10.70;9.80;;;;;;;24.17;100.00;99446.70;109611;1251;62474;-68
2023/09/09 09:40:44;;;;;;;10.30;9.30;;;;;;;24.26;100.00;99447.32;109643;1251;58956;-74
2023/09/09 09:43:20;;;;;;;11.00;10.10;;;;;;;24.33;100.00;99443.86;109637;1251;59103;-68
2023/09/09 09:45:47;;;;;;;11.80;10.60;;;;;;;24.36;100.00;99442.46;109660;1251;65999;-68
2023/09/09 09:48:27;;;;;;;11.60;10.60;;;;;;;24.38;100.00;99441.87;109621;1251;59058;-68
2023/09/09 09:50:54;;;;;;;11.80;10.50;;;;;;;24.40;100.00;99439.09;109640;1251;62507;-68
2023/09/09 09:53:21;;;;;;;11.40;10.40;;;;;;;24.45;100.00;99440.85;109569;1254;58951;-68
2023/09/09 09:55:50;;;;;;;12.50;11.30;;;;;;;24.47;100.00;99441.14;109644;1251;58904;-69
2023/09/09 09:58:18;;;;;;;12.00;10.70;;;;;;;24.51;100.00;99440.62;109612;1251;66053;-68
2023/09/09 10:00:45;;;;;;;11.50;9.80;;;;;;;24.58;100.00;99441.33;109619;1251;58943;-68
2023/09/09 10:03:14;;;;;;;12.00;10.80;;;;;;;24.61;100.00;99439.62;109607;1251;63329;-69
2023/09/09 10:05:47;;;;;;;12.10;11.00;;;;;;;24.69;100.00;99437.48;109470;1251;59166;-69
2023/09/09 10:08:22;;;;;;;11.70;10.60;;;;;;;24.82;100.00;99432.56;109608;1251;58961;-68
2023/09/09 10:10:57;;;;;;;14.00;12.00;;;;;;;24.94;100.00;99430.71;109645;1250;64832;-68
2023/09/09 10:13:31;;;;;;;12.00;10.90;;;;;;;25.03;100.00;99428.71;109677;1250;60157;-68
2023/09/09 10:16:00;;;;;;;11.20;10.20;;;;;;;25.05;100.00;99426.11;109593;1251;64049;-68
2023/09/09 10:18:28;;;;;;;11.90;10.10;;;;;;;25.09;100.00;99425.32;109546;1251;59029;-71
2023/09/09 10:20:56;;;;;;;10.90;10.00;;;;;;;25.17;100.00;99421.54;109397;1251;59044;-68
2023/09/09 10:23:24;;;;;;;10.70;9.70;;;;;;;25.29;100.00;99418.83;109255;1251;66029;-68
2023/09/09 10:25:53;;;;;;;10.30;9.40;;;;;;;25.43;100.00;99419.58;109590;1251;59307;-73
2023/09/09 10:28:20;;;;;;;9.60;8.60;;;;;;;25.53;100.00;99417.94;109252;1250;64076;-69
2023/09/09 10:30:48;;;;;;;9.20;8.40;;;;;;;25.63;100.00;99411.45;109649;1251;58945;-68
2023/09/09 10:33:16;;;;;;;10.40;9.30;;;;;;;25.74;100.00;99408.73;109643;1251;59083;-68
2023/09/09 10:35:45;;;;;;;9.50;8.70;;;;;;;25.83;100.00;99407.31;109496;1252;66043;-68
2023/09/09 10:38:14;;;;;;;11.30;9.30;;;;;;;25.91;100.00;99406.33;109639;1251;60155;-68
2023/09/09 10:40:41;;;;;;;9.70;8.70;;;;;;;25.95;100.00;99404.36;109612;1251;64168;-68
2023/09/09 10:43:08;;;;;;;9.50;8.60;;;;;;;26.06;100.00;99399.88;109533;1251;58973;-67
2023/09/09 10:45:43;;;;;;;10.10;9.20;;;;;;;26.18;100.00;99399.90;109569;1251;59099;-68
2023/09/09 10:48:11;;;;;;;8.90;8.10;;;;;;;26.27;100.00;99398.38;109371;1252;66295;-68
2023/09/09 10:50:39;;;;;;;10.20;9.30;;;;;;;26.32;100.00;99395.94;109633;1251;61139;-68
2023/09/09 10:53:17;;;;;;;9.00;8.10;;;;;;;26.27;100.00;99401.11;109564;1251;62875;-68
2023/09/09 10:55:46;;;;;;;9.10;8.30;;;;;;;26.26;100.00;99403.27;109625;1251;59265;-68
2023/09/09 10:58:18;;;;;;;8.80;8.10;;;;;;;26.32;100.00;99402.96;109610;1251;58964;-68
2023/09/09 11:00:46;;;;;;;8.60;7.90;;;;;;;26.42;100.00;99395.91;109664;1251;65716;-69
2023/09/09 11:03:14;;;;;;;9.70;8.80;;;;;;;26.52;100.00;99399.98;109661;1251;60306;-68